sensor_id;sensor_type;location;lat;lon;timestamp;P1;durP1;ratioP1;P2;durP2;ratioP2
2656;SDS011;1338;48.176;11.792;2022-08-03T00:00:33;4.13;;;3.83;;
2656;SDS011;1338;48.176;11.792;2022-08-03T00:03:01;4.10;;;3.80;;
2656;SDS011;1338;48.176;11.792;2022-08-03T00:05:29;3.80;;;3.50;;
2656;SDS011;1338;48.176;11.792;2022-08-03T00:07:58;4.43;;;4.13;;
2656;SDS011;1338;48.176;11.792;2022-08-03T00:10:27;4.63;;;4.33;;
2656;SDS011;1338;48.176;11.792;2022-08-03T00:12:57;3.97;;;3.73;;
2656;SDS011;1338;48.176;11.792;2022-08-03T00:15:25;4.50;;;4.10;;
2656;SDS011;1338;48.176;11.792;2022-08-03T00:17:53;4.33;;;4.00;;
2656;SDS011;1338;48.176;11.792;2022-08-03T00:20:22;4.00;;;3.70;;
2656;SDS011;1338;48.176;11.792;2022-08-03T00:22:51;3.87;;;3.57;;
2656;SDS011;1338;48.176;11.792;2022-08-03T00:25:19;4.80;;;4.40;;
2656;SDS011;1338;48.176;11.792;2022-08-03T00:27:47;4.50;;;4.20;;
2656;SDS011;1338;48.176;11.792;2022-08-03T00:30:17;4.13;;;3.83;;
2656;SDS011;1338;48.176;11.792;2022-08-03T00:32:46;4.40;;;4.00;;
2656;SDS011;1338;48.176;11.792;2022-08-03T00:35:15;3.90;;;3.70;;
2656;SDS011;1338;48.176;11.792;2022-08-03T00:38:02;4.00;;;3.70;;
2656;SDS011;1338;48.176;11.792;2022-08-03T00:40:31;4.60;;;4.23;;
2656;SDS011;1338;48.176;11.792;2022-08-03T00:43:00;4.73;;;4.23;;
2656;SDS011;1338;48.176;11.792;2022-08-03T00:45:31;4.40;;;4.10;;
2656;SDS011;1338;48.176;11.792;2022-08-03T00:48:01;4.13;;;3.83;;
2656;SDS011;1338;48.176;11.792;2022-08-03T00:50:33;4.47;;;4.13;;
2656;SDS011;1338;48.176;11.792;2022-08-03T00:53:03;4.30;;;4.00;;
2656;SDS011;1338;48.176;11.792;2022-08-03T00:55:33;4.40;;;4.10;;
2656;SDS011;1338;48.176;11.792;2022-08-03T00:58:03;4.13;;;3.83;;
2656;SDS011;1338;48.176;11.792;2022-08-03T01:00:34;4.30;;;4.00;;
2656;SDS011;1338;48.176;11.792;2022-08-03T01:03:05;3.90;;;3.60;;
2656;SDS011;1338;48.176;11.792;2022-08-03T01:05:39;3.93;;;3.63;;
2656;SDS011;1338;48.176;11.792;2022-08-03T01:08:16;4.17;;;3.87;;
2656;SDS011;1338;48.176;11.792;2022-08-03T01:10:51;4.67;;;4.37;;
2656;SDS011;1338;48.176;11.792;2022-08-03T01:13:28;4.83;;;4.33;;
2656;SDS011;1338;48.176;11.792;2022-08-03T01:16:36;4.33;;;3.93;;
2656;SDS011;1338;48.176;11.792;2022-08-03T01:19:15;4.33;;;4.03;;
2656;SDS011;1338;48.176;11.792;2022-08-03T01:22:14;4.10;;;3.80;;
2656;SDS011;1338;48.176;11.792;2022-08-03T01:24:55;4.57;;;4.17;;
2656;SDS011;1338;48.176;11.792;2022-08-03T01:27:30;3.90;;;3.70;;
2656;SDS011;1338;48.176;11.792;2022-08-03T01:30:12;4.07;;;3.70;;
2656;SDS011;1338;48.176;11.792;2022-08-03T01:32:41;4.13;;;3.83;;
2656;SDS011;1338;48.176;11.792;2022-08-03T01:35:28;4.60;;;4.20;;
2656;SDS011;1338;48.176;11.792;2022-08-03T01:38:06;4.30;;;4.00;;
2656;SDS011;1338;48.176;11.792;2022-08-03T01:40:38;4.10;;;3.80;;
2656;SDS011;1338;48.176;11.792;2022-08-03T01:43:12;7.43;;;6.77;;
2656;SDS011;1338;48.176;11.792;2022-08-03T01:46:05;5.33;;;4.80;;
2656;SDS011;1338;48.176;11.792;2022-08-03T01:48:35;5.00;;;4.60;;
2656;SDS011;1338;48.176;11.792;2022-08-03T01:51:04;4.70;;;4.30;;
2656;SDS011;1338;48.176;11.792;2022-08-03T01:53:34;4.37;;;4.07;;
2656;SDS011;1338;48.176;11.792;2022-08-03T01:56:05;3.97;;;3.67;;
2656;SDS011;1338;48.176;11.792;2022-08-03T01:58:34;4.00;;;3.70;;
2656;SDS011;1338;48.176;11.792;2022-08-03T02:01:03;3.87;;;3.63;;
2656;SDS011;1338;48.176;11.792;2022-08-03T02:03:36;4.10;;;3.80;;
2656;SDS011;1338;48.176;11.792;2022-08-03T02:06:26;3.40;;;3.20;;
2656;SDS011;1338;48.176;11.792;2022-08-03T02:09:17;3.93;;;3.63;;
2656;SDS011;1338;48.176;11.792;2022-08-03T02:11:47;3.53;;;3.30;;
2656;SDS011;1338;48.176;11.792;2022-08-03T02:14:17;3.53;;;3.23;;
2656;SDS011;1338;48.176;11.792;2022-08-03T02:16:48;3.50;;;3.30;;
2656;SDS011;1338;48.176;11.792;2022-08-03T02:19:18;4.10;;;3.70;;
2656;SDS011;1338;48.176;11.792;2022-08-03T02:21:46;3.60;;;3.33;;
2656;SDS011;1338;48.176;11.792;2022-08-03T02:24:26;4.10;;;3.50;;
2656;SDS011;1338;48.176;11.792;2022-08-03T02:26:55;3.70;;;3.40;;
2656;SDS011;1338;48.176;11.792;2022-08-03T02:29:26;3.50;;;3.20;;
2656;SDS011;1338;48.176;11.792;2022-08-03T02:32:09;3.40;;;3.10;;
2656;SDS011;1338;48.176;11.792;2022-08-03T02:34:44;3.63;;;3.40;;
2656;SDS011;1338;48.176;11.792;2022-08-03T02:37:15;3.70;;;3.50;;
2656;SDS011;1338;48.176;11.792;2022-08-03T02:39:46;3.67;;;3.40;;
2656;SDS011;1338;48.176;11.792;2022-08-03T02:42:17;4.00;;;3.60;;
2656;SDS011;1338;48.176;11.792;2022-08-03T02:44:49;3.30;;;3.00;;
2656;SDS011;1338;48.176;11.792;2022-08-03T02:47:23;4.90;;;3.50;;
2656;SDS011;1338;48.176;11.792;2022-08-03T02:50:14;3.83;;;3.53;;
2656;SDS011;1338;48.176;11.792;2022-08-03T02:52:43;3.67;;;3.47;;
2656;SDS011;1338;48.176;11.792;2022-08-03T02:55:13;5.60;;;3.30;;
2656;SDS011;1338;48.176;11.792;2022-08-03T02:57:43;5.10;;;3.90;;
2656;SDS011;1338;48.176;11.792;2022-08-03T03:00:14;3.60;;;3.40;;
2656;SDS011;1338;48.176;11.792;2022-08-03T03:02:55;3.57;;;3.27;;
2656;SDS011;1338;48.176;11.792;2022-08-03T03:05:25;3.80;;;3.50;;
2656;SDS011;1338;48.176;11.792;2022-08-03T03:08:15;3.47;;;3.20;;
2656;SDS011;1338;48.176;11.792;2022-08-03T03:10:52;4.27;;;3.90;;
2656;SDS011;1338;48.176;11.792;2022-08-03T03:13:21;3.90;;;3.60;;
2656;SDS011;1338;48.176;11.792;2022-08-03T03:15:51;4.00;;;3.70;;
2656;SDS011;1338;48.176;11.792;2022-08-03T03:18:22;4.20;;;3.90;;
2656;SDS011;1338;48.176;11.792;2022-08-03T03:20:51;4.07;;;3.77;;
2656;SDS011;1338;48.176;11.792;2022-08-03T03:23:20;3.67;;;3.37;;
2656;SDS011;1338;48.176;11.792;2022-08-03T03:25:50;3.50;;;3.30;;
2656;SDS011;1338;48.176;11.792;2022-08-03T03:28:21;3.30;;;3.10;;
2656;SDS011;1338;48.176;11.792;2022-08-03T03:30:50;5.37;;;4.40;;
2656;SDS011;1338;48.176;11.792;2022-08-03T03:33:19;3.83;;;3.63;;
2656;SDS011;1338;48.176;11.792;2022-08-03T03:35:49;3.90;;;3.60;;
2656;SDS011;1338;48.176;11.792;2022-08-03T03:38:18;3.87;;;3.67;;
2656;SDS011;1338;48.176;11.792;2022-08-03T03:40:47;3.50;;;3.30;;
2656;SDS011;1338;48.176;11.792;2022-08-03T03:43:15;3.37;;;3.10;;
2656;SDS011;1338;48.176;11.792;2022-08-03T03:45:44;3.57;;;3.27;;
2656;SDS011;1338;48.176;11.792;2022-08-03T03:48:14;3.70;;;3.50;;
2656;SDS011;1338;48.176;11.792;2022-08-03T03:50:43;3.47;;;3.27;;
2656;SDS011;1338;48.176;11.792;2022-08-03T03:53:12;4.10;;;3.80;;
2656;SDS011;1338;48.176;11.792;2022-08-03T03:55:41;3.83;;;3.40;;
2656;SDS011;1338;48.176;11.792;2022-08-03T03:58:28;4.30;;;4.00;;
2656;SDS011;1338;48.176;11.792;2022-08-03T04:00:57;3.97;;;3.67;;
2656;SDS011;1338;48.176;11.792;2022-08-03T04:03:26;4.40;;;4.00;;
2656;SDS011;1338;48.176;11.792;2022-08-03T04:05:55;4.00;;;3.43;;
2656;SDS011;1338;48.176;11.792;2022-08-03T04:08:47;3.80;;;3.50;;
2656;SDS011;1338;48.176;11.792;2022-08-03T04:11:33;3.63;;;3.33;;
2656;SDS011;1338;48.176;11.792;2022-08-03T04:14:07;3.73;;;3.43;;
2656;SDS011;1338;48.176;11.792;2022-08-03T04:16:39;5.80;;;3.63;;
2656;SDS011;1338;48.176;11.792;2022-08-03T04:19:10;4.27;;;3.70;;
2656;SDS011;1338;48.176;11.792;2022-08-03T04:21:50;3.53;;;3.33;;
2656;SDS011;1338;48.176;11.792;2022-08-03T04:24:22;3.90;;;3.60;;
2656;SDS011;1338;48.176;11.792;2022-08-03T04:26:54;5.80;;;3.70;;
2656;SDS011;1338;48.176;11.792;2022-08-03T04:29:24;4.10;;;3.43;;
2656;SDS011;1338;48.176;11.792;2022-08-03T04:31:53;5.40;;;3.90;;
2656;SDS011;1338;48.176;11.792;2022-08-03T04:34:22;3.70;;;3.40;;
2656;SDS011;1338;48.176;11.792;2022-08-03T04:36:52;4.23;;;3.83;;
2656;SDS011;1338;48.176;11.792;2022-08-03T04:39:26;4.50;;;4.10;;
2656;SDS011;1338;48.176;11.792;2022-08-03T04:41:57;4.50;;;4.20;;
2656;SDS011;1338;48.176;11.792;2022-08-03T04:44:34;4.20;;;3.90;;
2656;SDS011;1338;48.176;11.792;2022-08-03T04:47:05;4.30;;;3.90;;
2656;SDS011;1338;48.176;11.792;2022-08-03T04:49:35;5.50;;;4.00;;
2656;SDS011;1338;48.176;11.792;2022-08-03T04:52:07;4.07;;;3.30;;
2656;SDS011;1338;48.176;11.792;2022-08-03T04:54:39;4.07;;;3.70;;
2656;SDS011;1338;48.176;11.792;2022-08-03T04:57:15;5.00;;;3.73;;
2656;SDS011;1338;48.176;11.792;2022-08-03T04:59:48;3.50;;;3.30;;
2656;SDS011;1338;48.176;11.792;2022-08-03T05:02:27;6.70;;;4.30;;
2656;SDS011;1338;48.176;11.792;2022-08-03T05:04:55;7.20;;;4.60;;
2656;SDS011;1338;48.176;11.792;2022-08-03T05:07:25;4.60;;;4.30;;
2656;SDS011;1338;48.176;11.792;2022-08-03T05:10:03;4.17;;;3.77;;
2656;SDS011;1338;48.176;11.792;2022-08-03T05:12:41;3.77;;;3.47;;
2656;SDS011;1338;48.176;11.792;2022-08-03T05:15:10;6.10;;;4.00;;
2656;SDS011;1338;48.176;11.792;2022-08-03T05:17:39;5.60;;;3.73;;
2656;SDS011;1338;48.176;11.792;2022-08-03T05:20:08;3.93;;;3.63;;
2656;SDS011;1338;48.176;11.792;2022-08-03T05:22:39;3.70;;;3.50;;
2656;SDS011;1338;48.176;11.792;2022-08-03T05:25:07;3.70;;;3.40;;
2656;SDS011;1338;48.176;11.792;2022-08-03T05:27:44;6.83;;;3.60;;
2656;SDS011;1338;48.176;11.792;2022-08-03T05:30:12;4.07;;;3.77;;
2656;SDS011;1338;48.176;11.792;2022-08-03T05:32:59;4.47;;;3.63;;
2656;SDS011;1338;48.176;11.792;2022-08-03T05:35:27;3.83;;;3.40;;
2656;SDS011;1338;48.176;11.792;2022-08-03T05:38:17;4.60;;;3.40;;
2656;SDS011;1338;48.176;11.792;2022-08-03T05:40:53;3.67;;;3.37;;
2656;SDS011;1338;48.176;11.792;2022-08-03T05:43:42;4.00;;;3.70;;
2656;SDS011;1338;48.176;11.792;2022-08-03T05:46:10;5.83;;;3.53;;
2656;SDS011;1338;48.176;11.792;2022-08-03T05:48:39;5.23;;;4.23;;
2656;SDS011;1338;48.176;11.792;2022-08-03T05:51:07;3.70;;;3.40;;
2656;SDS011;1338;48.176;11.792;2022-08-03T05:53:38;3.87;;;3.57;;
2656;SDS011;1338;48.176;11.792;2022-08-03T05:56:07;3.77;;;3.47;;
2656;SDS011;1338;48.176;11.792;2022-08-03T05:58:41;3.57;;;3.37;;
2656;SDS011;1338;48.176;11.792;2022-08-03T06:01:09;3.90;;;3.60;;
2656;SDS011;1338;48.176;11.792;2022-08-03T06:03:38;3.40;;;3.13;;
2656;SDS011;1338;48.176;11.792;2022-08-03T06:06:06;3.70;;;3.40;;
2656;SDS011;1338;48.176;11.792;2022-08-03T06:08:34;4.50;;;4.10;;
2656;SDS011;1338;48.176;11.792;2022-08-03T06:11:04;4.10;;;3.80;;
2656;SDS011;1338;48.176;11.792;2022-08-03T06:13:33;3.60;;;3.30;;
2656;SDS011;1338;48.176;11.792;2022-08-03T06:16:01;3.27;;;3.07;;
2656;SDS011;1338;48.176;11.792;2022-08-03T06:18:30;5.03;;;3.90;;
2656;SDS011;1338;48.176;11.792;2022-08-03T06:20:58;4.20;;;3.90;;
2656;SDS011;1338;48.176;11.792;2022-08-03T06:23:42;3.60;;;3.40;;
2656;SDS011;1338;48.176;11.792;2022-08-03T06:26:22;4.20;;;3.80;;
2656;SDS011;1338;48.176;11.792;2022-08-03T06:28:51;4.23;;;3.90;;
2656;SDS011;1338;48.176;11.792;2022-08-03T06:31:21;4.13;;;3.83;;
2656;SDS011;1338;48.176;11.792;2022-08-03T06:33:59;4.43;;;3.70;;
2656;SDS011;1338;48.176;11.792;2022-08-03T06:36:49;4.07;;;3.67;;
2656;SDS011;1338;48.176;11.792;2022-08-03T06:39:18;3.50;;;3.20;;
2656;SDS011;1338;48.176;11.792;2022-08-03T06:41:51;4.10;;;3.80;;
2656;SDS011;1338;48.176;11.792;2022-08-03T06:44:21;3.97;;;3.67;;
2656;SDS011;1338;48.176;11.792;2022-08-03T06:46:49;4.00;;;3.70;;
2656;SDS011;1338;48.176;11.792;2022-08-03T06:49:17;3.27;;;3.07;;
2656;SDS011;1338;48.176;11.792;2022-08-03T06:51:46;3.30;;;3.10;;
2656;SDS011;1338;48.176;11.792;2022-08-03T06:54:33;3.50;;;3.30;;
2656;SDS011;1338;48.176;11.792;2022-08-03T06:57:03;3.53;;;3.23;;
2656;SDS011;1338;48.176;11.792;2022-08-03T06:59:33;3.93;;;3.63;;
2656;SDS011;1338;48.176;11.792;2022-08-03T07:02:21;4.80;;;3.63;;
2656;SDS011;1338;48.176;11.792;2022-08-03T07:04:53;4.03;;;3.70;;
2656;SDS011;1338;48.176;11.792;2022-08-03T07:07:21;3.80;;;3.30;;
2656;SDS011;1338;48.176;11.792;2022-08-03T07:09:50;3.83;;;3.57;;
2656;SDS011;1338;48.176;11.792;2022-08-03T07:12:25;3.50;;;3.30;;
2656;SDS011;1338;48.176;11.792;2022-08-03T07:14:54;4.10;;;3.73;;
2656;SDS011;1338;48.176;11.792;2022-08-03T07:17:27;3.30;;;3.10;;
2656;SDS011;1338;48.176;11.792;2022-08-03T07:19:56;3.80;;;3.50;;
2656;SDS011;1338;48.176;11.792;2022-08-03T07:22:25;3.10;;;2.90;;
2656;SDS011;1338;48.176;11.792;2022-08-03T07:24:54;3.90;;;3.60;;
2656;SDS011;1338;48.176;11.792;2022-08-03T07:27:23;3.40;;;3.10;;
2656;SDS011;1338;48.176;11.792;2022-08-03T07:29:54;4.50;;;4.20;;
2656;SDS011;1338;48.176;11.792;2022-08-03T07:32:23;3.80;;;3.50;;
2656;SDS011;1338;48.176;11.792;2022-08-03T07:34:51;3.93;;;3.63;;
2656;SDS011;1338;48.176;11.792;2022-08-03T07:37:25;4.07;;;3.77;;
2656;SDS011;1338;48.176;11.792;2022-08-03T07:39:54;3.80;;;3.57;;
2656;SDS011;1338;48.176;11.792;2022-08-03T07:42:22;4.13;;;3.83;;
2656;SDS011;1338;48.176;11.792;2022-08-03T07:44:52;3.33;;;3.13;;
2656;SDS011;1338;48.176;11.792;2022-08-03T07:47:20;3.53;;;3.23;;
2656;SDS011;1338;48.176;11.792;2022-08-03T07:50:00;3.80;;;3.53;;
2656;SDS011;1338;48.176;11.792;2022-08-03T07:52:28;3.60;;;3.30;;
2656;SDS011;1338;48.176;11.792;2022-08-03T07:55:16;3.27;;;3.07;;
2656;SDS011;1338;48.176;11.792;2022-08-03T07:57:45;3.10;;;2.90;;
2656;SDS011;1338;48.176;11.792;2022-08-03T08:00:16;3.50;;;3.27;;
2656;SDS011;1338;48.176;11.792;2022-08-03T08:02:45;3.63;;;3.33;;
2656;SDS011;1338;48.176;11.792;2022-08-03T08:05:13;3.90;;;3.50;;
2656;SDS011;1338;48.176;11.792;2022-08-03T08:07:42;3.50;;;3.20;;
2656;SDS011;1338;48.176;11.792;2022-08-03T08:10:17;3.37;;;3.17;;
2656;SDS011;1338;48.176;11.792;2022-08-03T08:12:45;3.23;;;3.03;;
2656;SDS011;1338;48.176;11.792;2022-08-03T08:15:14;3.80;;;3.50;;
2656;SDS011;1338;48.176;11.792;2022-08-03T08:17:44;3.73;;;3.43;;
2656;SDS011;1338;48.176;11.792;2022-08-03T08:20:15;4.07;;;3.07;;
2656;SDS011;1338;48.176;11.792;2022-08-03T08:22:54;3.33;;;3.13;;
2656;SDS011;1338;48.176;11.792;2022-08-03T08:25:26;3.10;;;2.90;;
2656;SDS011;1338;48.176;11.792;2022-08-03T08:27:55;3.07;;;2.87;;
2656;SDS011;1338;48.176;11.792;2022-08-03T08:30:48;3.70;;;3.40;;
2656;SDS011;1338;48.176;11.792;2022-08-03T08:33:16;3.33;;;3.13;;
2656;SDS011;1338;48.176;11.792;2022-08-03T08:35:49;3.40;;;3.20;;
2656;SDS011;1338;48.176;11.792;2022-08-03T08:38:18;3.77;;;3.57;;
2656;SDS011;1338;48.176;11.792;2022-08-03T08:40:47;3.40;;;3.10;;
2656;SDS011;1338;48.176;11.792;2022-08-03T08:43:16;3.20;;;3.00;;
2656;SDS011;1338;48.176;11.792;2022-08-03T08:45:44;3.83;;;3.50;;
2656;SDS011;1338;48.176;11.792;2022-08-03T08:48:17;3.80;;;3.47;;
2656;SDS011;1338;48.176;11.792;2022-08-03T08:50:51;3.63;;;3.33;;
2656;SDS011;1338;48.176;11.792;2022-08-03T08:53:20;3.60;;;3.30;;
2656;SDS011;1338;48.176;11.792;2022-08-03T08:55:53;3.43;;;3.13;;
2656;SDS011;1338;48.176;11.792;2022-08-03T08:58:27;3.50;;;3.30;;
2656;SDS011;1338;48.176;11.792;2022-08-03T09:00:58;3.57;;;3.30;;
2656;SDS011;1338;48.176;11.792;2022-08-03T09:03:26;3.20;;;3.00;;
2656;SDS011;1338;48.176;11.792;2022-08-03T09:05:57;3.30;;;3.00;;
2656;SDS011;1338;48.176;11.792;2022-08-03T09:08:27;3.83;;;3.53;;
2656;SDS011;1338;48.176;11.792;2022-08-03T09:10:56;3.20;;;3.00;;
2656;SDS011;1338;48.176;11.792;2022-08-03T09:13:24;3.20;;;3.00;;
2656;SDS011;1338;48.176;11.792;2022-08-03T09:18:47;2.97;;;2.77;;
2656;SDS011;1338;48.176;11.792;2022-08-03T09:21:18;3.00;;;2.80;;
2656;SDS011;1338;48.176;11.792;2022-08-03T09:23:58;3.43;;;3.17;;
2656;SDS011;1338;48.176;11.792;2022-08-03T09:26:31;3.07;;;2.87;;
2656;SDS011;1338;48.176;11.792;2022-08-03T09:29:01;3.10;;;2.90;;
2656;SDS011;1338;48.176;11.792;2022-08-03T09:31:39;3.00;;;2.70;;
2656;SDS011;1338;48.176;11.792;2022-08-03T09:34:11;3.37;;;3.17;;
2656;SDS011;1338;48.176;11.792;2022-08-03T09:36:42;3.07;;;2.80;;
2656;SDS011;1338;48.176;11.792;2022-08-03T09:39:12;3.30;;;3.00;;
2656;SDS011;1338;48.176;11.792;2022-08-03T09:41:42;2.80;;;2.60;;
2656;SDS011;1338;48.176;11.792;2022-08-03T09:44:12;3.37;;;3.07;;
2656;SDS011;1338;48.176;11.792;2022-08-03T09:46:52;2.80;;;2.60;;
2656;SDS011;1338;48.176;11.792;2022-08-03T09:49:23;2.73;;;2.60;;
2656;SDS011;1338;48.176;11.792;2022-08-03T09:51:51;2.90;;;2.70;;
2656;SDS011;1338;48.176;11.792;2022-08-03T09:54:40;3.23;;;3.03;;
2656;SDS011;1338;48.176;11.792;2022-08-03T09:57:19;2.77;;;2.57;;
2656;SDS011;1338;48.176;11.792;2022-08-03T09:59:49;3.03;;;2.83;;
2656;SDS011;1338;48.176;11.792;2022-08-03T10:02:37;2.73;;;2.53;;
2656;SDS011;1338;48.176;11.792;2022-08-03T10:05:09;2.87;;;2.67;;
2656;SDS011;1338;48.176;11.792;2022-08-03T10:07:46;3.17;;;2.87;;
2656;SDS011;1338;48.176;11.792;2022-08-03T10:10:16;3.20;;;2.90;;
2656;SDS011;1338;48.176;11.792;2022-08-03T10:12:57;2.80;;;2.60;;
2656;SDS011;1338;48.176;11.792;2022-08-03T10:15:27;2.77;;;2.57;;
2656;SDS011;1338;48.176;11.792;2022-08-03T10:18:15;2.50;;;2.40;;
2656;SDS011;1338;48.176;11.792;2022-08-03T10:20:48;2.80;;;2.60;;
2656;SDS011;1338;48.176;11.792;2022-08-03T10:23:18;2.80;;;2.60;;
2656;SDS011;1338;48.176;11.792;2022-08-03T10:25:48;2.97;;;2.73;;
2656;SDS011;1338;48.176;11.792;2022-08-03T10:28:21;3.03;;;2.80;;
2656;SDS011;1338;48.176;11.792;2022-08-03T10:30:50;2.80;;;2.60;;
2656;SDS011;1338;48.176;11.792;2022-08-03T10:33:20;2.93;;;2.60;;
2656;SDS011;1338;48.176;11.792;2022-08-03T10:36:11;2.50;;;2.30;;
2656;SDS011;1338;48.176;11.792;2022-08-03T10:38:42;2.93;;;2.73;;
2656;SDS011;1338;48.176;11.792;2022-08-03T10:41:18;4.13;;;2.60;;
2656;SDS011;1338;48.176;11.792;2022-08-03T10:43:49;2.57;;;2.37;;
2656;SDS011;1338;48.176;11.792;2022-08-03T10:46:20;2.50;;;2.40;;
2656;SDS011;1338;48.176;11.792;2022-08-03T10:48:48;2.30;;;2.20;;
2656;SDS011;1338;48.176;11.792;2022-08-03T10:51:20;2.70;;;2.50;;
2656;SDS011;1338;48.176;11.792;2022-08-03T10:53:49;2.60;;;2.40;;
2656;SDS011;1338;48.176;11.792;2022-08-03T10:56:39;2.70;;;2.50;;
2656;SDS011;1338;48.176;11.792;2022-08-03T10:59:58;3.00;;;2.80;;
2656;SDS011;1338;48.176;11.792;2022-08-03T11:05:33;2.90;;;2.70;;
2656;SDS011;1338;48.176;11.792;2022-08-03T11:08:23;3.00;;;2.80;;
2656;SDS011;1338;48.176;11.792;2022-08-03T11:10:57;3.13;;;2.80;;
2656;SDS011;1338;48.176;11.792;2022-08-03T11:13:27;3.10;;;2.90;;
2656;SDS011;1338;48.176;11.792;2022-08-03T11:16:00;2.63;;;2.53;;
2656;SDS011;1338;48.176;11.792;2022-08-03T11:18:34;3.00;;;2.80;;
2656;SDS011;1338;48.176;11.792;2022-08-03T11:21:03;2.90;;;2.70;;
2656;SDS011;1338;48.176;11.792;2022-08-03T11:23:43;3.13;;;2.60;;
2656;SDS011;1338;48.176;11.792;2022-08-03T11:26:31;3.13;;;2.80;;
2656;SDS011;1338;48.176;11.792;2022-08-03T11:31:53;2.50;;;2.30;;
2656;SDS011;1338;48.176;11.792;2022-08-03T11:34:21;3.00;;;2.70;;
2656;SDS011;1338;48.176;11.792;2022-08-03T11:39:58;3.17;;;2.60;;
2656;SDS011;1338;48.176;11.792;2022-08-03T11:42:37;2.70;;;2.50;;
2656;SDS011;1338;48.176;11.792;2022-08-03T11:45:07;2.50;;;2.40;;
2656;SDS011;1338;48.176;11.792;2022-08-03T11:47:37;2.50;;;2.40;;
2656;SDS011;1338;48.176;11.792;2022-08-03T11:50:16;2.90;;;2.70;;
2656;SDS011;1338;48.176;11.792;2022-08-03T11:52:47;2.80;;;2.60;;
2656;SDS011;1338;48.176;11.792;2022-08-03T11:55:18;3.00;;;2.80;;
2656;SDS011;1338;48.176;11.792;2022-08-03T11:57:47;2.57;;;2.47;;
2656;SDS011;1338;48.176;11.792;2022-08-03T12:00:36;2.63;;;2.43;;
2656;SDS011;1338;48.176;11.792;2022-08-03T12:03:07;2.57;;;2.37;;
2656;SDS011;1338;48.176;11.792;2022-08-03T12:05:38;2.77;;;2.57;;
2656;SDS011;1338;48.176;11.792;2022-08-03T12:08:18;2.83;;;2.63;;
2656;SDS011;1338;48.176;11.792;2022-08-03T12:11:00;2.70;;;2.50;;
2656;SDS011;1338;48.176;11.792;2022-08-03T12:13:36;2.73;;;2.53;;
2656;SDS011;1338;48.176;11.792;2022-08-03T12:16:25;2.70;;;2.50;;
2656;SDS011;1338;48.176;11.792;2022-08-03T12:18:55;2.67;;;2.47;;
2656;SDS011;1338;48.176;11.792;2022-08-03T12:21:24;2.73;;;2.53;;
2656;SDS011;1338;48.176;11.792;2022-08-03T12:23:55;2.80;;;2.60;;
2656;SDS011;1338;48.176;11.792;2022-08-03T12:26:27;2.93;;;2.73;;
2656;SDS011;1338;48.176;11.792;2022-08-03T12:28:56;2.63;;;2.53;;
2656;SDS011;1338;48.176;11.792;2022-08-03T12:31:25;4.37;;;2.80;;
2656;SDS011;1338;48.176;11.792;2022-08-03T12:33:54;2.80;;;2.60;;
2656;SDS011;1338;48.176;11.792;2022-08-03T12:36:24;3.13;;;2.90;;
2656;SDS011;1338;48.176;11.792;2022-08-03T12:38:53;3.10;;;2.70;;
2656;SDS011;1338;48.176;11.792;2022-08-03T12:41:28;3.33;;;2.60;;
2656;SDS011;1338;48.176;11.792;2022-08-03T12:43:59;3.00;;;2.80;;
2656;SDS011;1338;48.176;11.792;2022-08-03T12:46:30;2.90;;;2.70;;
2656;SDS011;1338;48.176;11.792;2022-08-03T12:49:07;2.70;;;2.50;;
2656;SDS011;1338;48.176;11.792;2022-08-03T12:51:37;3.13;;;2.83;;
2656;SDS011;1338;48.176;11.792;2022-08-03T12:54:22;2.97;;;2.77;;
2656;SDS011;1338;48.176;11.792;2022-08-03T12:56:57;2.70;;;2.50;;
2656;SDS011;1338;48.176;11.792;2022-08-03T12:59:27;2.90;;;2.70;;
2656;SDS011;1338;48.176;11.792;2022-08-03T13:02:05;2.90;;;2.70;;
2656;SDS011;1338;48.176;11.792;2022-08-03T13:04:43;2.57;;;2.37;;
2656;SDS011;1338;48.176;11.792;2022-08-03T13:07:12;3.00;;;2.70;;
2656;SDS011;1338;48.176;11.792;2022-08-03T13:09:44;2.80;;;2.30;;
2656;SDS011;1338;48.176;11.792;2022-08-03T13:12:15;2.87;;;2.67;;
2656;SDS011;1338;48.176;11.792;2022-08-03T13:14:47;3.00;;;2.50;;
2656;SDS011;1338;48.176;11.792;2022-08-03T13:17:17;3.00;;;2.70;;
2656;SDS011;1338;48.176;11.792;2022-08-03T13:19:46;2.83;;;2.63;;
2656;SDS011;1338;48.176;11.792;2022-08-03T13:22:15;3.00;;;2.80;;
2656;SDS011;1338;48.176;11.792;2022-08-03T13:24:45;3.20;;;2.53;;
2656;SDS011;1338;48.176;11.792;2022-08-03T13:27:15;3.00;;;2.80;;
2656;SDS011;1338;48.176;11.792;2022-08-03T13:30:04;3.00;;;2.70;;
2656;SDS011;1338;48.176;11.792;2022-08-03T13:32:34;2.70;;;2.60;;
2656;SDS011;1338;48.176;11.792;2022-08-03T13:35:03;2.80;;;2.60;;
2656;SDS011;1338;48.176;11.792;2022-08-03T13:37:31;2.67;;;2.50;;
2656;SDS011;1338;48.176;11.792;2022-08-03T13:40:00;2.87;;;2.67;;
2656;SDS011;1338;48.176;11.792;2022-08-03T13:42:33;2.67;;;2.57;;
2656;SDS011;1338;48.176;11.792;2022-08-03T13:45:02;2.50;;;2.30;;
2656;SDS011;1338;48.176;11.792;2022-08-03T13:47:31;3.07;;;2.87;;
2656;SDS011;1338;48.176;11.792;2022-08-03T13:49:59;2.60;;;2.40;;
2656;SDS011;1338;48.176;11.792;2022-08-03T13:52:29;2.83;;;2.63;;
2656;SDS011;1338;48.176;11.792;2022-08-03T13:54:58;2.80;;;2.60;;
2656;SDS011;1338;48.176;11.792;2022-08-03T13:57:27;3.33;;;3.03;;
2656;SDS011;1338;48.176;11.792;2022-08-03T14:00:17;3.10;;;2.60;;
2656;SDS011;1338;48.176;11.792;2022-08-03T14:02:54;2.60;;;2.40;;
2656;SDS011;1338;48.176;11.792;2022-08-03T14:05:34;2.80;;;2.60;;
2656;SDS011;1338;48.176;11.792;2022-08-03T14:08:04;2.93;;;2.73;;
2656;SDS011;1338;48.176;11.792;2022-08-03T14:10:33;2.70;;;2.50;;
2656;SDS011;1338;48.176;11.792;2022-08-03T14:13:04;2.90;;;2.67;;
2656;SDS011;1338;48.176;11.792;2022-08-03T14:15:33;2.43;;;2.30;;
2656;SDS011;1338;48.176;11.792;2022-08-03T14:18:04;2.67;;;2.47;;
2656;SDS011;1338;48.176;11.792;2022-08-03T14:20:41;2.77;;;2.57;;
2656;SDS011;1338;48.176;11.792;2022-08-03T14:23:16;2.60;;;2.40;;
2656;SDS011;1338;48.176;11.792;2022-08-03T14:25:45;2.87;;;2.67;;
2656;SDS011;1338;48.176;11.792;2022-08-03T14:28:18;2.70;;;2.50;;
2656;SDS011;1338;48.176;11.792;2022-08-03T14:30:50;2.70;;;2.50;;
2656;SDS011;1338;48.176;11.792;2022-08-03T14:33:20;3.10;;;2.53;;
2656;SDS011;1338;48.176;11.792;2022-08-03T14:35:48;3.50;;;2.60;;
2656;SDS011;1338;48.176;11.792;2022-08-03T14:38:17;2.53;;;2.33;;
2656;SDS011;1338;48.176;11.792;2022-08-03T14:40:46;2.60;;;2.50;;
2656;SDS011;1338;48.176;11.792;2022-08-03T14:43:15;2.70;;;2.50;;
2656;SDS011;1338;48.176;11.792;2022-08-03T14:45:45;2.70;;;2.50;;
2656;SDS011;1338;48.176;11.792;2022-08-03T14:48:15;2.93;;;2.70;;
2656;SDS011;1338;48.176;11.792;2022-08-03T14:51:03;2.90;;;2.70;;
2656;SDS011;1338;48.176;11.792;2022-08-03T14:53:32;2.67;;;2.47;;
2656;SDS011;1338;48.176;11.792;2022-08-03T14:56:01;2.80;;;2.50;;
2656;SDS011;1338;48.176;11.792;2022-08-03T14:58:35;2.50;;;2.40;;
2656;SDS011;1338;48.176;11.792;2022-08-03T15:01:04;2.80;;;2.60;;
2656;SDS011;1338;48.176;11.792;2022-08-03T15:03:55;2.30;;;2.20;;
2656;SDS011;1338;48.176;11.792;2022-08-03T15:06:23;3.10;;;2.90;;
2656;SDS011;1338;48.176;11.792;2022-08-03T15:08:51;3.20;;;2.90;;
2656;SDS011;1338;48.176;11.792;2022-08-03T15:11:39;2.77;;;2.57;;
2656;SDS011;1338;48.176;11.792;2022-08-03T15:14:08;4.10;;;2.97;;
2656;SDS011;1338;48.176;11.792;2022-08-03T15:16:40;3.00;;;2.80;;
2656;SDS011;1338;48.176;11.792;2022-08-03T15:19:09;2.87;;;2.67;;
2656;SDS011;1338;48.176;11.792;2022-08-03T15:21:58;3.00;;;2.80;;
2656;SDS011;1338;48.176;11.792;2022-08-03T15:24:27;2.87;;;2.67;;
2656;SDS011;1338;48.176;11.792;2022-08-03T15:26:55;3.27;;;2.97;;
2656;SDS011;1338;48.176;11.792;2022-08-03T15:29:24;3.20;;;2.50;;
2656;SDS011;1338;48.176;11.792;2022-08-03T15:32:12;2.87;;;2.67;;
2656;SDS011;1338;48.176;11.792;2022-08-03T15:34:42;3.60;;;2.60;;
2656;SDS011;1338;48.176;11.792;2022-08-03T15:37:15;3.83;;;2.73;;
2656;SDS011;1338;48.176;11.792;2022-08-03T15:39:44;3.00;;;2.80;;
2656;SDS011;1338;48.176;11.792;2022-08-03T15:42:26;3.00;;;2.80;;
2656;SDS011;1338;48.176;11.792;2022-08-03T15:44:55;4.20;;;3.17;;
2656;SDS011;1338;48.176;11.792;2022-08-03T15:47:24;3.20;;;2.67;;